This is the latest recevied weather packets stored in our database for station/object SQ6PCH-10. If no packets are shown the sender has not sent any weather packets the latest 1 day(s).
| Time | Temp. | Humidity | Pressure | Rain* | Wind** | Luminosity | Snow |
|---|---|---|---|---|---|---|---|
| 1778082587 | 23.89° C | 31% | 990.3 hPa | - | - | - | - |
| 1778079586 | 29.44° C | 23% | 990.8 hPa | - | - | - | - |
| 1778078986 | 28.89° C | 25% | 990.7 hPa | - | - | - | - |
| 1778075985 | 25° C | 30% | 991.3 hPa | - | - | - | - |
| 1778075385 | 26.11° C | 28% | 991.3 hPa | - | - | - | - |
| 1778072384 | 25.56° C | 31% | 991.5 hPa | - | - | - | - |
| 1778071784 | 23.33° C | 36% | 991.7 hPa | - | - | - | - |
| 1778068783 | 22.78° C | 37% | 991.5 hPa | - | - | - | - |
| 1778068183 | 22.78° C | 38% | 991.6 hPa | - | - | - | - |
| 1778066982 | 23.89° C | 35% | 991.6 hPa | - | - | - | - |
| 1778066382 | 22.22° C | 38% | 991.7 hPa | - | - | - | - |
| 1778065782 | 24.44° C | 35% | 991.6 hPa | - | - | - | - |
| 1778065182 | 21.67° C | 40% | 991.7 hPa | - | - | - | - |
| 1778064582 | 21.67° C | 39% | 991.6 hPa | - | - | - | - |
| 1778061581 | 25° C | 34% | 991.8 hPa | - | - | - | - |
| 1778060981 | 21.67° C | 43% | 991.6 hPa | - | - | - | - |
| 1778059185 | 20.56° C | 49% | 991.5 hPa | - | - | - | - |
| 1778058580 | 19.44° C | 52% | 991.3 hPa | - | - | - | - |
| 1778057980 | 20° C | 50% | 991.5 hPa | - | - | - | - |
| 1778057380 | 19.44° C | 51% | 991.4 hPa | - | - | - | - |
| 1778054979 | 19.44° C | 55% | 991.3 hPa | - | - | - | - |
| 1778054379 | 18.33° C | 57% | 991.2 hPa | - | - | - | - |
| 1778053779 | 20° C | 52% | 991.2 hPa | - | - | - | - |
| 1778052578 | 17.78° C | 59% | 991 hPa | - | - | - | - |
| 1778051978 | 18.33° C | 60% | 990.9 hPa | - | - | - | - |
* Rain since midnight (hover to see other rain measurements)
** Current wind speed in m/s (hover to see current wind gust speed)